Harvey, Mississippi
Current Conditions -  °F | °C
As of 9:53 AM on Wednesday 22 Oct 2014 (Local Time) from KHBG Reporting Station
Clear Clear  
Wind Chill: 67°   Ceiling: Unl
Heat Index: 67°   Visibility: 10mi
Dew Point: 53°   Wind: 5mph
Humidity: 61%   Direction: 50°NE
Pressure: 30.14"   Gusts: NA
Location:  31.3432°N, 89.178°W
Report Text: KHBG 221453Z AUTO 05004KT 10SM CLR 19/12 A3014 RMK AO2 SLP205 T01940117 51013
Loading
Personal Weather Stations






























Interactive Weather Map
Tropical Storm Tracking
New forecast layout! Learn more

10-Day Weather Forecast

Advertisements
Track Severe Weather on mobile